Report METAR

 

LIML - Milano/Linate, Italy
Distance from station: NO 27km
Dati ricevuti: 26/06/2017 01:50
Sereno
Sereno
 Vento da Variabile
Vento: Variabile 2 km/h
Temperatura: 22°C
P.to Rugiada: 17°C
Umidità: 73%
Barometro: 1013 hPa
Summary: Sereno
Visibility: superiore a 10 km
2017/06/25 23:50 LIML 252350Z VRB01KT CAVOK 22/17 Q1013 NOSIG
LIME - Bergamo/Orio Ser, Italy
Distance from station: NNE 43km
Dati ricevuti: 26/06/2017 01:50
Sereno
Sereno
 Vento da SSE
Vento: SSE 6 km/h
Temperatura: 21°C
P.to Rugiada: 18°C
Umidità: 83%
Barometro: 1014 hPa
Summary: Sereno
Visibility: superiore a 10 km
2017/06/25 23:50 LIME 252350Z 16003KT CAVOK 21/18 Q1014 NOSIG
 
LIMS - Piacenza, it-Afb, Italy
Distance from station: SSE 45km
Dati ricevuti: 23/06/2017 19:55
DATI Obsoleti
Sereno
Sereno
 Vento da NNO
Vento: NNO 13 km/h
Temperatura: 33°C
Indice di Calore: 34°C
P.to Rugiada: 19°C
Umidità: 44%
Barometro: 1012 hPa
Summary: Sereno
Visibility: superiore a 10 km
2017/06/23 17:55 LIMS 231755Z 33007KT CAVOK 33/19 Q1012 RMK BKN BKN200 VIS MIN 9999 WIND THR30 33006KT BLU
LIPO - Brescia/Montichi, Italy
Distance from station: ENE 65km
Dati ricevuti: 26/06/2017 00:50
Sereno
Sereno
 Vento da ENE
Vento: ENE 13 km/h
Temperatura: 21°C
P.to Rugiada: 17°C
Umidità: 78%
Barometro: 1013 hPa
Summary: Sereno
Visibility: superiore a 10 km
2017/06/25 22:50 LIPO 252250Z 06007KT CAVOK 21/17 Q1013